createdAt,value
2022-12-17T00:00:14.314Z,1.00
2022-12-17T00:03:00.826Z,1.08
2022-12-17T00:05:46.375Z,0.97
2022-12-17T00:08:31.534Z,1.05
2022-12-17T00:11:17.705Z,1.08
2022-12-17T00:14:03.300Z,1.11
2022-12-17T00:16:48.264Z,0.94
2022-12-17T00:19:34.768Z,0.98
2022-12-17T00:22:20.129Z,0.96
2022-12-17T00:25:05.870Z,0.90
2022-12-17T00:27:59.440Z,1.00
2022-12-17T00:30:44.602Z,1.03
2022-12-17T00:33:31.276Z,1.12
2022-12-17T00:36:18.609Z,1.17
2022-12-17T00:39:04.093Z,1.12
2022-12-17T00:41:49.808Z,1.01
2022-12-17T00:44:35.163Z,0.94
2022-12-17T00:47:20.459Z,1.07
2022-12-17T00:50:05.826Z,0.94
2022-12-17T00:52:52.701Z,0.84
2022-12-17T00:55:38.082Z,0.84
2022-12-17T00:58:23.872Z,0.79
2022-12-17T01:01:09.332Z,0.68
2022-12-17T01:03:55.074Z,0.72
2022-12-17T01:06:42.285Z,0.59
2022-12-17T01:09:29.421Z,0.55
2022-12-17T01:12:14.869Z,0.52
2022-12-17T01:15:01.911Z,0.56
2022-12-17T01:17:47.460Z,0.63
2022-12-17T01:20:33.236Z,0.59
2022-12-17T01:23:15.086Z,0.46
2022-12-17T01:26:02.005Z,0.41
2022-12-17T01:28:49.603Z,0.45
2022-12-17T01:31:35.632Z,0.43
2022-12-17T01:34:20.907Z,0.40
2022-12-17T01:37:07.263Z,0.40
2022-12-17T01:39:52.619Z,0.41
2022-12-17T01:42:41.840Z,0.42
2022-12-17T01:45:30.206Z,0.40
2022-12-17T01:48:21.101Z,0.42
2022-12-17T01:51:10.066Z,0.48
2022-12-17T01:53:56.526Z,0.40
2022-12-17T01:56:42.803Z,0.42
2022-12-17T01:59:32.175Z,0.36
2022-12-17T02:02:21.279Z,0.41
2022-12-17T02:05:07.039Z,0.31
2022-12-17T02:08:16.887Z,0.25
2022-12-17T02:11:10.552Z,0.30
2022-12-17T02:14:00.541Z,0.32
2022-12-17T02:16:53.569Z,0.24
2022-12-17T02:19:52.938Z,0.19
2022-12-17T02:22:47.823Z,0.13
2022-12-17T02:25:40.060Z,0.12
2022-12-17T02:28:28.761Z,0.11
2022-12-17T02:31:15.767Z,0.00
2022-12-17T02:34:01.098Z,0.00
2022-12-17T02:36:46.502Z,0.02
2022-12-17T02:39:31.882Z,-0.02
2022-12-17T02:42:17.806Z,-0.07
2022-12-17T02:45:05.416Z,-0.14
2022-12-17T02:47:50.854Z,-0.18
2022-12-17T02:50:36.665Z,-0.22
2022-12-17T02:53:22.499Z,-0.19
2022-12-17T02:56:08.054Z,-0.25
2022-12-17T02:58:53.248Z,-0.17
2022-12-17T03:01:40.285Z,-0.14
2022-12-17T03:04:25.660Z,-0.20
2022-12-17T03:07:19.467Z,-0.21
2022-12-17T03:10:04.657Z,-0.29
2022-12-17T03:12:50.247Z,-0.36
2022-12-17T03:15:35.775Z,-0.44
2022-12-17T03:18:22.767Z,-0.38
2022-12-17T03:21:11.733Z,-0.35
2022-12-17T03:23:57.115Z,-0.32
2022-12-17T03:26:42.226Z,-0.38
2022-12-17T03:29:27.717Z,-0.41
2022-12-17T03:32:13.160Z,-0.39
2022-12-17T03:34:59.659Z,-0.42
2022-12-17T03:37:44.829Z,-0.47
2022-12-17T03:40:30.335Z,-0.44
2022-12-17T03:43:15.832Z,-0.53
2022-12-17T03:46:01.373Z,-0.35
2022-12-17T03:48:46.728Z,-0.38
2022-12-17T03:51:33.400Z,-0.50
2022-12-17T03:54:18.794Z,-0.55
2022-12-17T03:57:04.113Z,-0.59
2022-12-17T03:59:49.145Z,-0.56
2022-12-17T04:02:34.447Z,-0.55
2022-12-17T04:05:20.595Z,-0.66
2022-12-17T04:08:07.572Z,-0.69
2022-12-17T04:10:53.363Z,-0.61
2022-12-17T04:13:41.286Z,-0.63
2022-12-17T04:16:29.485Z,-0.62
2022-12-17T04:19:14.809Z,-0.56
2022-12-17T04:22:00.382Z,-0.50
2022-12-17T04:24:47.081Z,-0.49
2022-12-17T04:27:32.252Z,-0.49
2022-12-17T04:30:17.520Z,-0.51
2022-12-17T04:33:02.695Z,-0.58
2022-12-17T04:35:48.132Z,-0.51
2022-12-17T04:38:33.216Z,-0.50
2022-12-17T04:41:19.924Z,-0.60
2022-12-17T04:44:05.348Z,-0.70
2022-12-17T04:46:50.560Z,-0.69
2022-12-17T04:49:36.152Z,-0.69
2022-12-17T04:52:22.042Z,-0.78
2022-12-17T04:55:07.512Z,-0.80
2022-12-17T04:57:54.654Z,-0.89
2022-12-17T05:00:36.420Z,-0.91
2022-12-17T05:03:25.889Z,-0.86
2022-12-17T05:06:11.838Z,-0.81
2022-12-17T05:08:57.079Z,-0.76
2022-12-17T05:11:43.627Z,-0.83
2022-12-17T05:14:33.752Z,-0.91
2022-12-17T05:17:19.177Z,-0.96
2022-12-17T05:20:10.446Z,-0.93
2022-12-17T05:22:56.254Z,-0.98
2022-12-17T05:25:41.742Z,-0.89
2022-12-17T05:28:27.407Z,-0.87
2022-12-17T05:31:14.932Z,-0.83
2022-12-17T05:34:00.529Z,-0.85
2022-12-17T05:36:46.341Z,-0.88
2022-12-17T05:39:30.630Z,-0.83
2022-12-17T05:42:16.009Z,-0.85
2022-12-17T05:44:57.690Z,-1.01
2022-12-17T05:47:46.671Z,-1.09
2022-12-17T05:50:32.916Z,-1.16
2022-12-17T05:53:21.178Z,-1.18
2022-12-17T05:56:09.504Z,-1.17
2022-12-17T05:58:54.904Z,-1.21
2022-12-17T06:01:40.427Z,-1.26
2022-12-17T06:04:28.289Z,-1.22
2022-12-17T06:07:14.016Z,-1.19
2022-12-17T06:09:59.592Z,-1.23
2022-12-17T06:12:44.863Z,-1.22
2022-12-17T06:15:30.176Z,-1.30
2022-12-17T06:18:17.115Z,-1.37
2022-12-17T06:21:04.380Z,-1.34
2022-12-17T06:23:49.652Z,-1.38
2022-12-17T06:26:34.707Z,-1.34
2022-12-17T06:29:20.019Z,-1.32
2022-12-17T06:32:05.349Z,-1.35
2022-12-17T06:34:50.414Z,-1.33
2022-12-17T06:37:37.133Z,-1.43
2022-12-17T06:40:23.020Z,-1.35
2022-12-17T06:43:12.373Z,-1.33
2022-12-17T06:45:58.087Z,-1.32
2022-12-17T06:48:43.277Z,-1.35
2022-12-17T06:51:28.623Z,-1.33
2022-12-17T06:54:15.242Z,-1.35
2022-12-17T06:57:00.399Z,-1.38
2022-12-17T06:59:45.818Z,-1.39
2022-12-17T07:02:31.676Z,-1.36
2022-12-17T07:05:17.327Z,-1.44
2022-12-17T07:08:02.435Z,-1.45
2022-12-17T07:10:49.409Z,-1.42
2022-12-17T07:13:46.173Z,-1.45
2022-12-17T07:16:31.693Z,-1.48
2022-12-17T07:19:16.928Z,-1.51
2022-12-17T07:22:02.252Z,-1.53
2022-12-17T07:24:47.142Z,-1.48
2022-12-17T07:27:36.149Z,-1.46
2022-12-17T07:30:21.424Z,-1.37
2022-12-17T07:33:18.125Z,-1.37
2022-12-17T07:36:03.633Z,-1.39
2022-12-17T07:38:48.808Z,-1.50
2022-12-17T07:41:30.495Z,-1.45
2022-12-17T07:44:16.966Z,-1.45
2022-12-17T07:47:02.324Z,-1.47
2022-12-17T07:49:47.911Z,-1.49
2022-12-17T07:52:32.993Z,-1.46
2022-12-17T07:55:18.534Z,-1.45
2022-12-17T07:58:03.583Z,-1.42
2022-12-17T08:00:50.461Z,-1.43
2022-12-17T08:03:36.200Z,-1.42
2022-12-17T08:06:21.907Z,-1.38
2022-12-17T08:09:07.478Z,-1.37
2022-12-17T08:11:52.775Z,-1.39
2022-12-17T08:14:38.210Z,-1.35
2022-12-17T08:17:24.950Z,-1.24
2022-12-17T08:20:10.324Z,-1.21
2022-12-17T08:22:55.726Z,-1.23
2022-12-17T08:25:40.871Z,-1.18
2022-12-17T08:28:49.682Z,-1.16
2022-12-17T08:31:31.978Z,-1.19
2022-12-17T08:34:19.030Z,-1.18
2022-12-17T08:37:04.474Z,-1.18
2022-12-17T08:39:50.056Z,-1.12
2022-12-17T08:42:36.512Z,-1.07
2022-12-17T08:45:22.447Z,-1.11
2022-12-17T08:48:07.979Z,-1.03
2022-12-17T08:50:54.800Z,-1.03
2022-12-17T08:53:40.559Z,-0.97
2022-12-17T08:56:26.445Z,-0.96
2022-12-17T08:59:11.989Z,-0.89
2022-12-17T09:01:57.690Z,-0.90
2022-12-17T09:04:49.299Z,-0.87
2022-12-17T09:07:36.130Z,-0.90
2022-12-17T09:10:21.529Z,-0.88
2022-12-17T09:13:07.480Z,-0.87
2022-12-17T09:15:53.591Z,-0.84
2022-12-17T09:18:39.493Z,-0.77
2022-12-17T09:21:25.916Z,-0.74
2022-12-17T09:24:13.105Z,-0.72
2022-12-17T09:26:58.880Z,-0.73
2022-12-17T09:29:46.709Z,-0.72
2022-12-17T09:32:32.274Z,-0.62
2022-12-17T09:35:14.285Z,-0.60
2022-12-17T09:37:59.294Z,-0.58
2022-12-17T09:40:49.042Z,-0.58
2022-12-17T09:43:44.414Z,-0.52
2022-12-17T09:46:39.343Z,-0.41
2022-12-17T09:49:35.073Z,-0.35
2022-12-17T09:52:26.816Z,-0.35
2022-12-17T09:55:12.077Z,-0.34
2022-12-17T09:57:59.123Z,-0.31
2022-12-17T10:00:46.237Z,-0.25
2022-12-17T10:03:35.163Z,-0.14
2022-12-17T10:06:25.701Z,-0.12
2022-12-17T10:09:14.932Z,-0.16
2022-12-17T10:12:00.360Z,-0.09
2022-12-17T10:14:47.080Z,-0.06
2022-12-17T10:17:34.494Z,0.00
2022-12-17T10:20:21.030Z,0.12
2022-12-17T10:23:09.165Z,0.15
2022-12-17T10:25:54.594Z,0.20
2022-12-17T10:28:42.139Z,0.24
2022-12-17T10:31:34.384Z,0.34
2022-12-17T10:34:20.161Z,0.43
2022-12-17T10:37:09.459Z,0.46
2022-12-17T10:39:55.947Z,0.49
2022-12-17T10:42:45.600Z,0.51
2022-12-17T10:45:39.706Z,0.65
2022-12-17T10:48:40.717Z,0.69
2022-12-17T10:51:38.790Z,0.80
2022-12-17T10:54:29.054Z,0.87
2022-12-17T10:57:16.902Z,0.88
2022-12-17T11:00:02.408Z,1.00
2022-12-17T11:02:49.006Z,1.08
2022-12-17T11:05:45.509Z,1.14
2022-12-17T11:08:32.590Z,1.14
2022-12-17T11:11:20.432Z,1.22
2022-12-17T11:14:09.503Z,1.23
2022-12-17T11:17:00.383Z,1.21
2022-12-17T11:19:55.488Z,1.25
2022-12-17T11:22:49.580Z,1.22
2022-12-17T11:25:46.164Z,1.27
2022-12-17T11:28:36.144Z,1.34
2022-12-17T11:31:37.882Z,1.34
2022-12-17T11:34:33.974Z,1.37
2022-12-17T11:37:32.053Z,1.39
2022-12-17T11:40:31.394Z,1.45
2022-12-17T11:43:22.090Z,1.47
2022-12-17T11:46:17.804Z,1.42
2022-12-17T11:49:08.438Z,1.50
2022-12-17T11:52:01.647Z,1.52
2022-12-17T11:54:54.102Z,1.52
2022-12-17T11:57:52.452Z,1.58
2022-12-17T12:00:53.862Z,1.67
2022-12-17T12:03:50.506Z,1.67
2022-12-17T12:06:56.302Z,1.65
2022-12-17T12:09:51.856Z,1.75
2022-12-17T12:12:44.658Z,1.75
2022-12-17T12:15:42.668Z,1.79
2022-12-17T12:18:34.941Z,1.84
2022-12-17T12:21:53.331Z,1.92
2022-12-17T12:24:56.980Z,1.99
2022-12-17T12:27:53.067Z,1.99
2022-12-17T12:30:43.917Z,2.04
2022-12-17T12:33:44.254Z,2.12
2022-12-17T12:36:33.267Z,2.09
2022-12-17T12:39:19.625Z,2.15
2022-12-17T12:42:12.147Z,2.20
2022-12-17T12:45:07.649Z,2.32
2022-12-17T12:48:04.652Z,2.34
2022-12-17T12:51:05.481Z,2.34
2022-12-17T12:53:53.676Z,2.36
2022-12-17T12:56:47.276Z,2.43
2022-12-17T12:59:44.703Z,2.44
2022-12-17T13:02:44.780Z,2.49
2022-12-17T13:05:39.404Z,2.51
2022-12-17T13:08:21.647Z,2.54
2022-12-17T13:10:51.118Z,2.54
2022-12-17T13:13:31.175Z,2.58
2022-12-17T13:16:04.819Z,2.61
2022-12-17T13:18:39.437Z,2.62
2022-12-17T13:21:29.601Z,2.71
2022-12-17T13:23:57.621Z,2.60
2022-12-17T13:26:34.204Z,2.64
2022-12-17T13:29:12.694Z,2.63
2022-12-17T13:31:55.129Z,2.68
2022-12-17T13:34:32.482Z,2.70
2022-12-17T13:37:09.310Z,2.70
2022-12-17T13:39:44.749Z,2.72
2022-12-17T13:42:19.472Z,2.72
2022-12-17T13:44:47.740Z,2.73
2022-12-17T13:47:22.568Z,2.71
2022-12-17T13:50:31.811Z,2.71
2022-12-17T13:52:47.703Z,2.66
2022-12-17T13:55:21.181Z,2.66
2022-12-17T13:57:50.626Z,2.64
2022-12-17T14:00:24.730Z,2.57
2022-12-17T14:02:53.668Z,2.60
2022-12-17T14:05:28.079Z,2.63
2022-12-17T14:08:01.300Z,2.66
2022-12-17T14:10:30.672Z,2.66
2022-12-17T14:13:06.099Z,2.67
2022-12-17T14:15:34.543Z,2.64
2022-12-17T14:18:03.857Z,2.59
2022-12-17T14:20:34.006Z,2.60
2022-12-17T14:23:06.548Z,2.54
2022-12-17T14:25:38.250Z,2.53
2022-12-17T14:28:08.160Z,2.50
2022-12-17T14:31:02.631Z,2.50
2022-12-17T14:33:30.264Z,2.48
2022-12-17T14:36:00.169Z,2.46
2022-12-17T14:38:38.687Z,2.39
2022-12-17T14:41:26.707Z,2.29
2022-12-17T14:43:59.440Z,2.30
2022-12-17T14:46:28.506Z,2.25
2022-12-17T14:49:03.992Z,2.26
2022-12-17T14:51:35.402Z,2.18
2022-12-17T14:54:25.683Z,2.16
2022-12-17T14:56:55.775Z,2.15
2022-12-17T14:59:31.764Z,2.16
2022-12-17T15:02:03.431Z,2.11
2022-12-17T15:04:33.293Z,2.07
2022-12-17T15:07:01.196Z,2.07
2022-12-17T15:09:30.502Z,2.05
2022-12-17T15:11:58.482Z,1.99
2022-12-17T15:14:26.430Z,1.97
2022-12-17T15:16:57.963Z,1.91
2022-12-17T15:19:26.030Z,1.88
2022-12-17T15:21:54.147Z,1.90
2022-12-17T15:24:22.651Z,1.89
2022-12-17T15:26:52.015Z,1.85
2022-12-17T15:29:19.874Z,1.82
2022-12-17T15:31:47.887Z,1.70
2022-12-17T15:34:15.860Z,1.72
2022-12-17T15:36:43.812Z,1.62
2022-12-17T15:39:12.328Z,1.61
2022-12-17T15:41:57.821Z,1.61
2022-12-17T15:44:27.828Z,1.59
2022-12-17T15:46:55.822Z,1.56
2022-12-17T15:49:23.769Z,1.50
2022-12-17T15:51:51.937Z,1.55
2022-12-17T15:54:20.157Z,1.46
2022-12-17T15:56:53.794Z,1.48
2022-12-17T15:59:21.641Z,1.44
2022-12-17T16:01:51.079Z,1.47
2022-12-17T16:04:24.881Z,1.39
2022-12-17T16:06:53.236Z,1.40
2022-12-17T16:09:24.655Z,1.40
2022-12-17T16:11:54.566Z,1.30
2022-12-17T16:14:22.632Z,1.30
2022-12-17T16:16:52.458Z,1.23
2022-12-17T16:19:23.183Z,1.19
2022-12-17T16:21:51.452Z,1.09
2022-12-17T16:24:19.660Z,1.08
2022-12-17T16:26:47.655Z,1.11
2022-12-17T16:29:15.694Z,1.09
2022-12-17T16:31:43.754Z,1.00
2022-12-17T16:34:14.549Z,0.95
2022-12-17T16:36:42.691Z,0.95
2022-12-17T16:39:16.693Z,0.95
2022-12-17T16:41:45.296Z,0.86
2022-12-17T16:44:13.431Z,0.86
2022-12-17T16:46:43.523Z,0.87
2022-12-17T16:49:17.024Z,0.90
2022-12-17T16:51:45.608Z,0.94
2022-12-17T16:54:16.302Z,0.89
2022-12-17T16:56:46.034Z,0.80
2022-12-17T16:59:16.014Z,0.77
2022-12-17T17:01:46.358Z,0.77
2022-12-17T17:04:17.764Z,0.74
2022-12-17T17:06:48.937Z,0.67
2022-12-17T17:09:17.811Z,0.56
2022-12-17T17:11:51.441Z,0.67
2022-12-17T17:14:20.245Z,0.60
2022-12-17T17:16:48.304Z,0.65
2022-12-17T17:19:19.776Z,0.61
2022-12-17T17:21:51.925Z,0.60
2022-12-17T17:24:22.440Z,0.52
2022-12-17T17:26:51.371Z,0.51
2022-12-17T17:29:19.881Z,0.51
2022-12-17T17:34:40.758Z,0.50
2022-12-17T17:37:08.676Z,0.44
2022-12-17T17:39:36.623Z,0.46
2022-12-17T17:42:04.832Z,0.42
2022-12-17T17:44:33.137Z,0.34
2022-12-17T17:47:01.403Z,0.36
2022-12-17T17:49:29.490Z,0.36
2022-12-17T17:52:14.124Z,0.33
2022-12-17T17:54:42.595Z,0.24
2022-12-17T17:57:10.979Z,0.20
2022-12-17T17:59:40.387Z,0.22
2022-12-17T18:02:10.853Z,0.24
2022-12-17T18:04:39.831Z,0.28
2022-12-17T18:07:25.291Z,0.19
2022-12-17T18:09:54.287Z,0.17
2022-12-17T18:12:40.741Z,0.20
2022-12-17T18:15:14.918Z,0.24
2022-12-17T18:17:44.399Z,0.20
2022-12-17T18:20:12.947Z,0.17
2022-12-17T18:22:42.378Z,0.11
2022-12-17T18:25:10.530Z,0.09
2022-12-17T18:27:38.639Z,0.13
2022-12-17T18:30:07.533Z,0.11
2022-12-17T18:32:35.620Z,0.13
2022-12-17T18:35:03.757Z,0.07
2022-12-17T18:37:31.595Z,0.06
2022-12-17T18:40:00.957Z,0.03
2022-12-17T18:42:45.248Z,0.01
2022-12-17T18:45:13.116Z,0.02
2022-12-17T18:47:42.586Z,-0.01
2022-12-17T18:50:11.328Z,0.07
2022-12-17T18:52:39.596Z,0.08
2022-12-17T18:55:09.260Z,0.01
2022-12-17T18:57:37.167Z,-0.02
2022-12-17T19:00:06.231Z,0.01
2022-12-17T19:02:34.170Z,-0.02
2022-12-17T19:05:02.164Z,-0.02
2022-12-17T19:07:30.820Z,-0.07
2022-12-17T19:09:58.952Z,-0.13
2022-12-17T19:12:28.305Z,-0.10
2022-12-17T19:14:56.571Z,-0.13
2022-12-17T19:17:24.480Z,-0.13
2022-12-17T19:19:52.458Z,-0.18
2022-12-17T19:22:20.435Z,-0.20
2022-12-17T19:24:48.290Z,-0.26
2022-12-17T19:27:16.374Z,-0.31
2022-12-17T19:29:49.652Z,-0.27
2022-12-17T19:32:18.355Z,-0.27
2022-12-17T19:34:46.215Z,-0.33
2022-12-17T19:37:14.172Z,-0.34
2022-12-17T19:39:42.267Z,-0.32
2022-12-17T19:42:24.923Z,-0.32
2022-12-17T19:44:55.260Z,-0.38
2022-12-17T19:47:24.197Z,-0.38
2022-12-17T19:49:52.074Z,-0.39
2022-12-17T19:52:19.990Z,-0.42
2022-12-17T19:54:49.021Z,-0.51
2022-12-17T19:57:17.022Z,-0.48
2022-12-17T19:59:45.046Z,-0.51
2022-12-17T20:02:15.809Z,-0.47
2022-12-17T20:04:43.864Z,-0.58
2022-12-17T20:07:13.800Z,-0.53
2022-12-17T20:09:44.262Z,-0.51
2022-12-17T20:12:12.696Z,-0.61
2022-12-17T20:14:40.694Z,-0.62
2022-12-17T20:17:08.882Z,-0.59
2022-12-17T20:19:38.702Z,-0.58
2022-12-17T20:22:07.597Z,-0.55
2022-12-17T20:24:37.355Z,-0.59
2022-12-17T20:27:05.848Z,-0.64
2022-12-17T20:29:33.995Z,-0.61
2022-12-17T20:32:03.392Z,-0.69
2022-12-17T20:34:31.844Z,-0.67
2022-12-17T20:37:01.163Z,-0.69
2022-12-17T20:39:29.119Z,-0.71
2022-12-17T20:41:57.748Z,-0.76
2022-12-17T20:44:25.604Z,-0.76
2022-12-17T20:46:54.728Z,-0.71
2022-12-17T20:49:22.648Z,-0.70
2022-12-17T20:51:50.474Z,-0.71
2022-12-17T20:54:20.084Z,-0.84
2022-12-17T20:56:47.962Z,-0.84
2022-12-17T20:59:17.968Z,-0.81
2022-12-17T21:01:50.431Z,-0.85
2022-12-17T21:04:22.266Z,-0.86
2022-12-17T21:06:50.306Z,-0.83
2022-12-17T21:09:20.893Z,-0.86
2022-12-17T21:11:49.411Z,-0.89
2022-12-17T21:14:18.763Z,-0.90
2022-12-17T21:16:47.754Z,-0.96
2022-12-17T21:19:20.062Z,-0.97
2022-12-17T21:21:48.696Z,-0.98
2022-12-17T21:24:16.751Z,-0.98
2022-12-17T21:26:47.565Z,-1.01
2022-12-17T21:29:15.826Z,-1.13
2022-12-17T21:31:46.067Z,-1.15
2022-12-17T21:34:16.183Z,-1.06
2022-12-17T21:36:44.985Z,-1.05
2022-12-17T21:39:14.587Z,-1.08
2022-12-17T21:42:08.231Z,-1.16
2022-12-17T21:44:36.519Z,-1.24
2022-12-17T21:47:04.427Z,-1.27
2022-12-17T21:49:32.554Z,-1.22
2022-12-17T21:52:01.488Z,-1.25
2022-12-17T21:54:29.674Z,-1.26
2022-12-17T21:56:59.088Z,-1.22
2022-12-17T21:59:27.055Z,-1.27
2022-12-17T22:01:57.306Z,-1.24
2022-12-17T22:04:25.996Z,-1.23
2022-12-17T22:07:05.568Z,-1.29
2022-12-17T22:09:40.840Z,-1.33
2022-12-17T22:12:45.168Z,-1.34
2022-12-17T22:15:13.251Z,-1.32
2022-12-17T22:17:42.322Z,-1.36
2022-12-17T22:20:11.440Z,-1.40
2022-12-17T22:22:39.436Z,-1.37
2022-12-17T22:25:08.875Z,-1.36
2022-12-17T22:27:40.241Z,-1.41
2022-12-17T22:30:27.576Z,-1.43
2022-12-17T22:33:02.408Z,-1.43
2022-12-17T22:38:09.469Z,-1.45
2022-12-17T22:42:07.116Z,-1.47
2022-12-17T22:44:33.706Z,-1.46
2022-12-17T22:44:41.790Z,-1.35
2022-12-17T22:47:10.594Z,-1.44
2022-12-17T22:49:41.391Z,-1.46
2022-12-17T22:52:11.981Z,-1.44
2022-12-17T22:54:40.063Z,-1.46
2022-12-17T22:57:35.401Z,-1.51
2022-12-17T23:00:00.357Z,-1.50
2022-12-17T23:02:28.220Z,-1.46
2022-12-17T23:04:56.102Z,-1.47
2022-12-17T23:07:29.928Z,-1.46
2022-12-17T23:09:59.938Z,-1.47
2022-12-17T23:12:45.757Z,-1.51
2022-12-17T23:15:16.661Z,-1.44
2022-12-17T23:17:44.610Z,-1.53
2022-12-17T23:20:13.104Z,-1.51
2022-12-17T23:22:40.989Z,-1.52
2022-12-17T23:25:09.475Z,-1.54
2022-12-17T23:27:37.416Z,-1.48
2022-12-17T23:30:13.828Z,-1.49
2022-12-17T23:32:43.062Z,-1.48
2022-12-17T23:35:12.057Z,-1.57
2022-12-17T23:37:40.720Z,-1.63
2022-12-17T23:40:12.354Z,-1.63
2022-12-17T23:42:40.626Z,-1.61
2022-12-17T23:45:11.365Z,-1.69
2022-12-17T23:47:39.995Z,-1.74
2022-12-17T23:50:11.508Z,-1.77
2022-12-17T23:52:40.351Z,-1.86
2022-12-17T23:55:09.253Z,-1.80
2022-12-17T23:57:37.163Z,-1.83
